sensor_id;sensor_type;location;lat;lon;timestamp;temperature;humidity
25951;DHT22;13748;52.240;6.002;2022-12-29T00:00:07;11.10;99.90
25951;DHT22;13748;52.240;6.002;2022-12-29T00:02:34;11.10;99.90
25951;DHT22;13748;52.240;6.002;2022-12-29T00:05:01;11.10;99.90
25951;DHT22;13748;52.240;6.002;2022-12-29T00:07:28;11.20;99.90
25951;DHT22;13748;52.240;6.002;2022-12-29T00:09:55;11.20;99.90
25951;DHT22;13748;52.240;6.002;2022-12-29T00:12:21;11.20;99.90
25951;DHT22;13748;52.240;6.002;2022-12-29T00:14:48;11.10;99.90
25951;DHT22;13748;52.240;6.002;2022-12-29T00:17:33;11.20;99.90
25951;DHT22;13748;52.240;6.002;2022-12-29T00:20:00;11.30;99.90
25951;DHT22;13748;52.240;6.002;2022-12-29T00:22:45;11.30;99.90
25951;DHT22;13748;52.240;6.002;2022-12-29T00:25:31;11.30;99.90
25951;DHT22;13748;52.240;6.002;2022-12-29T00:28:16;11.30;99.90
25951;DHT22;13748;52.240;6.002;2022-12-29T00:31:03;11.30;99.90
25951;DHT22;13748;52.240;6.002;2022-12-29T00:33:52;11.30;99.90
25951;DHT22;13748;52.240;6.002;2022-12-29T00:36:40;11.30;99.90
25951;DHT22;13748;52.240;6.002;2022-12-29T00:39:16;11.30;99.90
25951;DHT22;13748;52.240;6.002;2022-12-29T00:42:04;11.30;99.90
25951;DHT22;13748;52.240;6.002;2022-12-29T00:44:49;11.30;99.90
25951;DHT22;13748;52.240;6.002;2022-12-29T00:47:16;11.30;99.90
25951;DHT22;13748;52.240;6.002;2022-12-29T00:49:43;11.40;99.90
25951;DHT22;13748;52.240;6.002;2022-12-29T00:52:12;11.40;99.90
25951;DHT22;13748;52.240;6.002;2022-12-29T00:54:40;11.40;99.90
25951;DHT22;13748;52.240;6.002;2022-12-29T00:57:09;11.40;99.90
25951;DHT22;13748;52.240;6.002;2022-12-29T00:59:37;11.40;99.90
25951;DHT22;13748;52.240;6.002;2022-12-29T01:02:03;11.40;99.90
25951;DHT22;13748;52.240;6.002;2022-12-29T01:04:30;11.40;99.90
25951;DHT22;13748;52.240;6.002;2022-12-29T01:06:58;11.40;99.90
25951;DHT22;13748;52.240;6.002;2022-12-29T01:09:25;11.40;99.90
25951;DHT22;13748;52.240;6.002;2022-12-29T01:12:11;11.40;99.90
25951;DHT22;13748;52.240;6.002;2022-12-29T01:14:38;11.40;99.90
25951;DHT22;13748;52.240;6.002;2022-12-29T01:17:05;11.40;99.90
25951;DHT22;13748;52.240;6.002;2022-12-29T01:19:32;11.40;99.90
25951;DHT22;13748;52.240;6.002;2022-12-29T01:21:59;11.40;99.90
25951;DHT22;13748;52.240;6.002;2022-12-29T01:24:26;11.40;99.90
25951;DHT22;13748;52.240;6.002;2022-12-29T01:26:53;11.40;99.90
25951;DHT22;13748;52.240;6.002;2022-12-29T01:29:21;11.40;99.90
25951;DHT22;13748;52.240;6.002;2022-12-29T01:31:48;11.40;99.90
25951;DHT22;13748;52.240;6.002;2022-12-29T01:34:17;11.40;99.90
25951;DHT22;13748;52.240;6.002;2022-12-29T01:36:44;11.40;99.90
25951;DHT22;13748;52.240;6.002;2022-12-29T01:39:10;11.40;99.90
25951;DHT22;13748;52.240;6.002;2022-12-29T01:41:37;11.40;99.90
25951;DHT22;13748;52.240;6.002;2022-12-29T01:47:09;11.40;99.90
25951;DHT22;13748;52.240;6.002;2022-12-29T01:49:36;11.40;99.90
25951;DHT22;13748;52.240;6.002;2022-12-29T01:52:05;11.40;99.90
25951;DHT22;13748;52.240;6.002;2022-12-29T01:57:01;11.30;99.90
25951;DHT22;13748;52.240;6.002;2022-12-29T01:59:36;11.30;99.90
25951;DHT22;13748;52.240;6.002;2022-12-29T02:02:04;11.20;99.90
25951;DHT22;13748;52.240;6.002;2022-12-29T02:04:33;11.20;99.90
25951;DHT22;13748;52.240;6.002;2022-12-29T02:07:05;11.20;99.90
25951;DHT22;13748;52.240;6.002;2022-12-29T02:09:32;11.20;99.90
25951;DHT22;13748;52.240;6.002;2022-12-29T02:12:00;11.20;99.90
25951;DHT22;13748;52.240;6.002;2022-12-29T02:14:28;11.20;99.90
25951;DHT22;13748;52.240;6.002;2022-12-29T02:33:57;11.10;99.90
25951;DHT22;13748;52.240;6.002;2022-12-29T02:36:47;11.10;99.90
25951;DHT22;13748;52.240;6.002;2022-12-29T02:39:34;11.10;99.90
25951;DHT22;13748;52.240;6.002;2022-12-29T02:42:19;11.10;99.90
25951;DHT22;13748;52.240;6.002;2022-12-29T02:50:03;11.00;99.90
25951;DHT22;13748;52.240;6.002;2022-12-29T02:52:45;11.10;99.90
25951;DHT22;13748;52.240;6.002;2022-12-29T02:55:13;11.00;99.90
25951;DHT22;13748;52.240;6.002;2022-12-29T02:57:40;11.00;99.90
25951;DHT22;13748;52.240;6.002;2022-12-29T03:00:10;11.00;99.90
25951;DHT22;13748;52.240;6.002;2022-12-29T03:05:54;11.00;99.90
25951;DHT22;13748;52.240;6.002;2022-12-29T03:08:31;11.10;99.90
25951;DHT22;13748;52.240;6.002;2022-12-29T03:11:03;11.10;99.90
25951;DHT22;13748;52.240;6.002;2022-12-29T03:13:47;11.10;99.90
25951;DHT22;13748;52.240;6.002;2022-12-29T03:19:23;11.20;99.90
25951;DHT22;13748;52.240;6.002;2022-12-29T03:22:02;11.20;99.90
25951;DHT22;13748;52.240;6.002;2022-12-29T03:25:03;11.20;99.90
25951;DHT22;13748;52.240;6.002;2022-12-29T03:27:35;11.20;99.90
25951;DHT22;13748;52.240;6.002;2022-12-29T03:30:05;11.20;99.90
25951;DHT22;13748;52.240;6.002;2022-12-29T03:32:38;11.10;99.90
25951;DHT22;13748;52.240;6.002;2022-12-29T03:35:10;11.10;99.90
25951;DHT22;13748;52.240;6.002;2022-12-29T03:37:41;11.10;99.90
25951;DHT22;13748;52.240;6.002;2022-12-29T03:40:10;11.10;99.90
25951;DHT22;13748;52.240;6.002;2022-12-29T03:42:38;11.10;99.90
25951;DHT22;13748;52.240;6.002;2022-12-29T03:45:07;11.00;99.90
25951;DHT22;13748;52.240;6.002;2022-12-29T03:47:34;11.00;99.90
25951;DHT22;13748;52.240;6.002;2022-12-29T03:50:00;11.00;99.90
25951;DHT22;13748;52.240;6.002;2022-12-29T03:52:27;11.00;99.90
25951;DHT22;13748;52.240;6.002;2022-12-29T03:54:55;10.90;99.90
25951;DHT22;13748;52.240;6.002;2022-12-29T03:57:21;10.90;99.90
25951;DHT22;13748;52.240;6.002;2022-12-29T03:59:48;10.90;99.90
25951;DHT22;13748;52.240;6.002;2022-12-29T04:02:15;10.90;99.90
25951;DHT22;13748;52.240;6.002;2022-12-29T04:04:44;10.90;99.90
25951;DHT22;13748;52.240;6.002;2022-12-29T04:07:10;10.90;99.90
25951;DHT22;13748;52.240;6.002;2022-12-29T04:09:37;10.90;99.90
25951;DHT22;13748;52.240;6.002;2022-12-29T04:12:04;10.90;99.90
25951;DHT22;13748;52.240;6.002;2022-12-29T04:14:30;10.90;99.90
25951;DHT22;13748;52.240;6.002;2022-12-29T04:16:58;11.00;99.90
25951;DHT22;13748;52.240;6.002;2022-12-29T04:19:24;11.00;99.90
25951;DHT22;13748;52.240;6.002;2022-12-29T04:21:51;11.00;99.90
25951;DHT22;13748;52.240;6.002;2022-12-29T04:24:18;11.00;99.90
25951;DHT22;13748;52.240;6.002;2022-12-29T04:26:44;11.00;99.90
25951;DHT22;13748;52.240;6.002;2022-12-29T04:29:11;11.00;99.90
25951;DHT22;13748;52.240;6.002;2022-12-29T04:31:38;11.00;99.90
25951;DHT22;13748;52.240;6.002;2022-12-29T04:34:05;11.10;99.90
25951;DHT22;13748;52.240;6.002;2022-12-29T04:36:31;11.10;99.90
25951;DHT22;13748;52.240;6.002;2022-12-29T04:38:58;11.10;99.90
25951;DHT22;13748;52.240;6.002;2022-12-29T04:41:25;11.10;99.90
25951;DHT22;13748;52.240;6.002;2022-12-29T04:43:52;11.10;99.90
25951;DHT22;13748;52.240;6.002;2022-12-29T04:46:19;11.00;99.90
25951;DHT22;13748;52.240;6.002;2022-12-29T04:48:45;11.00;99.90
25951;DHT22;13748;52.240;6.002;2022-12-29T04:51:12;11.10;99.90
25951;DHT22;13748;52.240;6.002;2022-12-29T04:53:39;11.00;99.90
25951;DHT22;13748;52.240;6.002;2022-12-29T04:56:06;11.00;99.90
25951;DHT22;13748;52.240;6.002;2022-12-29T04:58:33;11.10;99.90
25951;DHT22;13748;52.240;6.002;2022-12-29T05:01:00;11.10;99.90
25951;DHT22;13748;52.240;6.002;2022-12-29T05:03:27;11.00;99.90
25951;DHT22;13748;52.240;6.002;2022-12-29T05:05:54;11.00;99.90
25951;DHT22;13748;52.240;6.002;2022-12-29T05:08:22;10.90;99.90
25951;DHT22;13748;52.240;6.002;2022-12-29T05:10:54;10.90;99.90
25951;DHT22;13748;52.240;6.002;2022-12-29T05:13:20;10.80;99.90
25951;DHT22;13748;52.240;6.002;2022-12-29T05:15:50;10.90;99.90
25951;DHT22;13748;52.240;6.002;2022-12-29T05:18:18;10.80;99.90
25951;DHT22;13748;52.240;6.002;2022-12-29T05:20:45;10.80;99.90
25951;DHT22;13748;52.240;6.002;2022-12-29T05:23:12;10.80;99.90
25951;DHT22;13748;52.240;6.002;2022-12-29T05:25:39;10.80;99.90
25951;DHT22;13748;52.240;6.002;2022-12-29T05:28:05;10.70;99.90
25951;DHT22;13748;52.240;6.002;2022-12-29T05:30:33;10.70;99.90
25951;DHT22;13748;52.240;6.002;2022-12-29T05:32:59;10.70;99.90
25951;DHT22;13748;52.240;6.002;2022-12-29T05:35:26;10.70;99.90
25951;DHT22;13748;52.240;6.002;2022-12-29T05:37:53;10.70;99.90
25951;DHT22;13748;52.240;6.002;2022-12-29T05:40:20;10.70;99.90
25951;DHT22;13748;52.240;6.002;2022-12-29T05:42:46;10.80;99.90
25951;DHT22;13748;52.240;6.002;2022-12-29T05:45:13;10.70;99.90
25951;DHT22;13748;52.240;6.002;2022-12-29T05:47:40;10.80;99.90
25951;DHT22;13748;52.240;6.002;2022-12-29T05:50:07;10.80;99.90
25951;DHT22;13748;52.240;6.002;2022-12-29T05:52:34;10.70;99.90
25951;DHT22;13748;52.240;6.002;2022-12-29T05:55:00;10.60;99.90
25951;DHT22;13748;52.240;6.002;2022-12-29T05:57:27;10.60;99.90
25951;DHT22;13748;52.240;6.002;2022-12-29T05:59:54;10.60;99.90
25951;DHT22;13748;52.240;6.002;2022-12-29T06:02:20;10.60;99.90
25951;DHT22;13748;52.240;6.002;2022-12-29T06:04:47;10.60;99.90
25951;DHT22;13748;52.240;6.002;2022-12-29T06:07:14;10.60;99.90
25951;DHT22;13748;52.240;6.002;2022-12-29T06:09:41;10.60;99.90
25951;DHT22;13748;52.240;6.002;2022-12-29T06:12:08;10.60;99.90
25951;DHT22;13748;52.240;6.002;2022-12-29T06:14:34;10.70;99.90
25951;DHT22;13748;52.240;6.002;2022-12-29T06:17:01;10.70;99.90
25951;DHT22;13748;52.240;6.002;2022-12-29T06:19:28;10.70;99.90
25951;DHT22;13748;52.240;6.002;2022-12-29T06:21:55;10.60;99.90
25951;DHT22;13748;52.240;6.002;2022-12-29T06:24:22;10.70;99.90
25951;DHT22;13748;52.240;6.002;2022-12-29T06:26:48;10.60;99.90
25951;DHT22;13748;52.240;6.002;2022-12-29T06:29:15;10.60;99.90
25951;DHT22;13748;52.240;6.002;2022-12-29T06:31:44;10.60;99.90
25951;DHT22;13748;52.240;6.002;2022-12-29T06:34:15;10.60;99.90
25951;DHT22;13748;52.240;6.002;2022-12-29T06:36:42;10.60;99.90
25951;DHT22;13748;52.240;6.002;2022-12-29T06:39:10;10.50;99.90
25951;DHT22;13748;52.240;6.002;2022-12-29T06:41:37;10.60;99.90
25951;DHT22;13748;52.240;6.002;2022-12-29T06:44:04;10.60;99.90
25951;DHT22;13748;52.240;6.002;2022-12-29T06:46:31;10.60;99.90
25951;DHT22;13748;52.240;6.002;2022-12-29T06:48:58;10.50;99.90
25951;DHT22;13748;52.240;6.002;2022-12-29T06:51:24;10.50;99.90
25951;DHT22;13748;52.240;6.002;2022-12-29T06:53:51;10.40;99.90
25951;DHT22;13748;52.240;6.002;2022-12-29T06:56:18;10.40;99.90
25951;DHT22;13748;52.240;6.002;2022-12-29T06:58:45;10.30;99.90
25951;DHT22;13748;52.240;6.002;2022-12-29T07:01:11;10.20;99.90
25951;DHT22;13748;52.240;6.002;2022-12-29T07:03:41;10.20;99.90
25951;DHT22;13748;52.240;6.002;2022-12-29T07:06:08;10.10;99.90
25951;DHT22;13748;52.240;6.002;2022-12-29T07:08:35;10.10;99.90
25951;DHT22;13748;52.240;6.002;2022-12-29T07:11:01;10.00;99.90
25951;DHT22;13748;52.240;6.002;2022-12-29T07:13:28;10.00;99.90
25951;DHT22;13748;52.240;6.002;2022-12-29T07:15:55;10.00;99.90
25951;DHT22;13748;52.240;6.002;2022-12-29T07:18:22;10.00;99.90
25951;DHT22;13748;52.240;6.002;2022-12-29T07:20:48;10.00;99.90
25951;DHT22;13748;52.240;6.002;2022-12-29T07:23:15;9.90;99.90
25951;DHT22;13748;52.240;6.002;2022-12-29T07:25:42;10.00;99.90
25951;DHT22;13748;52.240;6.002;2022-12-29T07:28:09;9.90;99.90
25951;DHT22;13748;52.240;6.002;2022-12-29T07:30:37;9.90;99.90
25951;DHT22;13748;52.240;6.002;2022-12-29T07:33:04;9.90;99.90
25951;DHT22;13748;52.240;6.002;2022-12-29T07:35:30;10.00;99.90
25951;DHT22;13748;52.240;6.002;2022-12-29T07:37:57;9.90;99.90
25951;DHT22;13748;52.240;6.002;2022-12-29T07:40:24;9.90;99.90
25951;DHT22;13748;52.240;6.002;2022-12-29T07:42:51;9.80;99.90
25951;DHT22;13748;52.240;6.002;2022-12-29T07:45:17;9.70;99.90
25951;DHT22;13748;52.240;6.002;2022-12-29T07:47:48;9.70;99.90
25951;DHT22;13748;52.240;6.002;2022-12-29T07:50:15;9.60;99.90
25951;DHT22;13748;52.240;6.002;2022-12-29T07:52:42;9.50;99.90
25951;DHT22;13748;52.240;6.002;2022-12-29T07:55:09;9.40;99.90
25951;DHT22;13748;52.240;6.002;2022-12-29T07:57:36;9.40;99.90
25951;DHT22;13748;52.240;6.002;2022-12-29T08:00:03;9.30;99.90
25951;DHT22;13748;52.240;6.002;2022-12-29T08:02:30;9.20;99.90
25951;DHT22;13748;52.240;6.002;2022-12-29T08:04:56;9.20;99.90
25951;DHT22;13748;52.240;6.002;2022-12-29T08:07:23;9.20;99.90
25951;DHT22;13748;52.240;6.002;2022-12-29T08:09:50;9.10;99.90
25951;DHT22;13748;52.240;6.002;2022-12-29T08:12:17;9.10;99.90
25951;DHT22;13748;52.240;6.002;2022-12-29T08:14:44;9.10;99.90
25951;DHT22;13748;52.240;6.002;2022-12-29T08:17:10;9.00;99.90
25951;DHT22;13748;52.240;6.002;2022-12-29T08:19:37;9.10;99.90
25951;DHT22;13748;52.240;6.002;2022-12-29T08:22:04;9.10;99.90
25951;DHT22;13748;52.240;6.002;2022-12-29T08:24:31;9.10;99.90
25951;DHT22;13748;52.240;6.002;2022-12-29T08:26:58;9.20;99.90
25951;DHT22;13748;52.240;6.002;2022-12-29T08:29:32;9.30;99.90
25951;DHT22;13748;52.240;6.002;2022-12-29T08:31:59;9.30;99.90
25951;DHT22;13748;52.240;6.002;2022-12-29T08:34:26;9.40;99.90
25951;DHT22;13748;52.240;6.002;2022-12-29T08:36:52;9.40;99.90
25951;DHT22;13748;52.240;6.002;2022-12-29T08:39:19;9.40;99.90
25951;DHT22;13748;52.240;6.002;2022-12-29T08:41:46;9.40;99.90
25951;DHT22;13748;52.240;6.002;2022-12-29T08:44:12;9.40;99.90
25951;DHT22;13748;52.240;6.002;2022-12-29T08:46:39;9.50;99.90
25951;DHT22;13748;52.240;6.002;2022-12-29T08:49:06;9.60;99.90
25951;DHT22;13748;52.240;6.002;2022-12-29T08:51:33;9.50;99.90
25951;DHT22;13748;52.240;6.002;2022-12-29T08:54:00;9.50;99.90
25951;DHT22;13748;52.240;6.002;2022-12-29T08:56:27;9.60;99.90
25951;DHT22;13748;52.240;6.002;2022-12-29T08:58:54;9.60;99.90
25951;DHT22;13748;52.240;6.002;2022-12-29T09:01:21;9.70;99.90
25951;DHT22;13748;52.240;6.002;2022-12-29T09:03:49;9.70;99.90
25951;DHT22;13748;52.240;6.002;2022-12-29T09:06:36;9.80;99.90
25951;DHT22;13748;52.240;6.002;2022-12-29T09:09:06;9.80;99.90
25951;DHT22;13748;52.240;6.002;2022-12-29T09:11:33;9.80;99.90
25951;DHT22;13748;52.240;6.002;2022-12-29T09:14:00;9.90;99.90
25951;DHT22;13748;52.240;6.002;2022-12-29T09:16:27;9.90;99.90
25951;DHT22;13748;52.240;6.002;2022-12-29T09:18:54;10.00;99.90
25951;DHT22;13748;52.240;6.002;2022-12-29T09:21:20;10.00;99.90
25951;DHT22;13748;52.240;6.002;2022-12-29T09:23:48;10.00;99.90
25951;DHT22;13748;52.240;6.002;2022-12-29T09:26:15;10.00;99.90
25951;DHT22;13748;52.240;6.002;2022-12-29T09:28:41;10.00;99.90
25951;DHT22;13748;52.240;6.002;2022-12-29T09:31:08;10.00;99.90
25951;DHT22;13748;52.240;6.002;2022-12-29T09:33:35;10.00;99.90
25951;DHT22;13748;52.240;6.002;2022-12-29T09:36:03;10.00;99.90
25951;DHT22;13748;52.240;6.002;2022-12-29T09:38:29;10.00;99.90
25951;DHT22;13748;52.240;6.002;2022-12-29T09:41:04;10.00;99.90
25951;DHT22;13748;52.240;6.002;2022-12-29T09:46:29;10.10;99.90
25951;DHT22;13748;52.240;6.002;2022-12-29T09:51:53;10.10;99.90
25951;DHT22;13748;52.240;6.002;2022-12-29T09:54:24;10.20;99.90
25951;DHT22;13748;52.240;6.002;2022-12-29T09:56:57;10.20;99.90
25951;DHT22;13748;52.240;6.002;2022-12-29T09:59:36;10.20;99.90
25951;DHT22;13748;52.240;6.002;2022-12-29T10:02:16;10.20;99.90
25951;DHT22;13748;52.240;6.002;2022-12-29T10:04:47;10.20;99.90
25951;DHT22;13748;52.240;6.002;2022-12-29T10:13:21;10.10;99.90
25951;DHT22;13748;52.240;6.002;2022-12-29T10:16:09;10.10;99.90
25951;DHT22;13748;52.240;6.002;2022-12-29T10:18:54;10.00;99.90
25951;DHT22;13748;52.240;6.002;2022-12-29T10:24:34;10.00;99.90
25951;DHT22;13748;52.240;6.002;2022-12-29T10:27:09;9.90;99.90
25951;DHT22;13748;52.240;6.002;2022-12-29T10:29:41;9.90;99.90
25951;DHT22;13748;52.240;6.002;2022-12-29T10:32:37;9.90;99.90
25951;DHT22;13748;52.240;6.002;2022-12-29T10:35:13;9.90;99.90
25951;DHT22;13748;52.240;6.002;2022-12-29T10:45:47;9.90;99.90
25951;DHT22;13748;52.240;6.002;2022-12-29T10:48:22;9.90;99.90
25951;DHT22;13748;52.240;6.002;2022-12-29T10:50:59;9.90;99.90
25951;DHT22;13748;52.240;6.002;2022-12-29T10:53:35;9.80;99.90
25951;DHT22;13748;52.240;6.002;2022-12-29T10:56:14;9.80;99.90
25951;DHT22;13748;52.240;6.002;2022-12-29T10:58:43;9.80;99.90
25951;DHT22;13748;52.240;6.002;2022-12-29T11:01:16;9.90;99.90
25951;DHT22;13748;52.240;6.002;2022-12-29T11:06:51;9.80;99.90
25951;DHT22;13748;52.240;6.002;2022-12-29T11:09:33;9.90;99.90
25951;DHT22;13748;52.240;6.002;2022-12-29T11:12:20;9.80;99.90
25951;DHT22;13748;52.240;6.002;2022-12-29T11:14:47;9.90;99.90
25951;DHT22;13748;52.240;6.002;2022-12-29T11:17:26;9.90;99.90
25951;DHT22;13748;52.240;6.002;2022-12-29T11:19:53;10.00;99.90
25951;DHT22;13748;52.240;6.002;2022-12-29T11:22:26;9.80;99.90
25951;DHT22;13748;52.240;6.002;2022-12-29T11:24:54;10.00;99.90
25951;DHT22;13748;52.240;6.002;2022-12-29T11:27:31;10.00;99.90
25951;DHT22;13748;52.240;6.002;2022-12-29T11:29:59;10.00;99.90
25951;DHT22;13748;52.240;6.002;2022-12-29T11:32:27;10.00;99.90
25951;DHT22;13748;52.240;6.002;2022-12-29T11:34:57;10.00;99.90
25951;DHT22;13748;52.240;6.002;2022-12-29T11:37:32;10.00;99.90
25951;DHT22;13748;52.240;6.002;2022-12-29T11:40:14;10.00;99.90
25951;DHT22;13748;52.240;6.002;2022-12-29T11:42:59;10.00;99.90
25951;DHT22;13748;52.240;6.002;2022-12-29T11:45:34;10.00;99.90
25951;DHT22;13748;52.240;6.002;2022-12-29T11:50:37;9.90;99.90
25951;DHT22;13748;52.240;6.002;2022-12-29T11:53:06;9.90;99.90
25951;DHT22;13748;52.240;6.002;2022-12-29T11:55:34;10.00;99.90
25951;DHT22;13748;52.240;6.002;2022-12-29T11:58:02;10.00;99.90
25951;DHT22;13748;52.240;6.002;2022-12-29T12:00:33;10.10;99.90
25951;DHT22;13748;52.240;6.002;2022-12-29T12:03:04;10.10;99.90
25951;DHT22;13748;52.240;6.002;2022-12-29T12:05:47;10.10;99.90
25951;DHT22;13748;52.240;6.002;2022-12-29T12:08:35;10.10;99.90
25951;DHT22;13748;52.240;6.002;2022-12-29T12:11:26;10.00;99.90
25951;DHT22;13748;52.240;6.002;2022-12-29T12:16:37;10.00;99.90
25951;DHT22;13748;52.240;6.002;2022-12-29T12:21:40;10.00;99.90
25951;DHT22;13748;52.240;6.002;2022-12-29T12:32:27;9.90;99.90
25951;DHT22;13748;52.240;6.002;2022-12-29T12:34:55;9.90;99.90
25951;DHT22;13748;52.240;6.002;2022-12-29T12:37:41;9.90;99.90
25951;DHT22;13748;52.240;6.002;2022-12-29T12:40:26;10.00;99.90
25951;DHT22;13748;52.240;6.002;2022-12-29T12:53:31;10.00;99.90
25951;DHT22;13748;52.240;6.002;2022-12-29T13:01:54;9.90;99.90
25951;DHT22;13748;52.240;6.002;2022-12-29T13:04:42;9.90;99.90
25951;DHT22;13748;52.240;6.002;2022-12-29T13:07:21;9.90;99.90
25951;DHT22;13748;52.240;6.002;2022-12-29T13:15:57;10.00;99.90
25951;DHT22;13748;52.240;6.002;2022-12-29T13:21:22;10.10;99.90
25951;DHT22;13748;52.240;6.002;2022-12-29T13:29:56;10.10;99.90
25951;DHT22;13748;52.240;6.002;2022-12-29T13:38:43;10.10;99.90
25951;DHT22;13748;52.240;6.002;2022-12-29T13:40:56;10.10;99.90
25951;DHT22;13748;52.240;6.002;2022-12-29T13:43:27;10.10;99.90
25951;DHT22;13748;52.240;6.002;2022-12-29T13:46:01;10.20;99.90
25951;DHT22;13748;52.240;6.002;2022-12-29T13:48:40;10.20;99.90
25951;DHT22;13748;52.240;6.002;2022-12-29T13:51:08;10.20;99.90
25951;DHT22;13748;52.240;6.002;2022-12-29T13:56:39;10.20;99.90
25951;DHT22;13748;52.240;6.002;2022-12-29T14:02:03;10.20;99.90
25951;DHT22;13748;52.240;6.002;2022-12-29T14:04:31;10.20;99.90
25951;DHT22;13748;52.240;6.002;2022-12-29T14:07:13;10.20;99.90
25951;DHT22;13748;52.240;6.002;2022-12-29T14:09:51;10.20;99.90
25951;DHT22;13748;52.240;6.002;2022-12-29T14:12:22;10.20;99.90
25951;DHT22;13748;52.240;6.002;2022-12-29T14:14:51;10.20;99.90
25951;DHT22;13748;52.240;6.002;2022-12-29T14:17:20;10.20;99.90
25951;DHT22;13748;52.240;6.002;2022-12-29T14:19:52;10.20;99.90
25951;DHT22;13748;52.240;6.002;2022-12-29T14:22:25;10.10;99.90
25951;DHT22;13748;52.240;6.002;2022-12-29T14:24:59;10.10;99.90
25951;DHT22;13748;52.240;6.002;2022-12-29T14:27:52;10.00;99.90
25951;DHT22;13748;52.240;6.002;2022-12-29T14:30:48;10.00;99.90
25951;DHT22;13748;52.240;6.002;2022-12-29T14:33:17;10.00;99.90
25951;DHT22;13748;52.240;6.002;2022-12-29T14:35:46;9.90;99.90
25951;DHT22;13748;52.240;6.002;2022-12-29T14:38:18;9.90;99.90
25951;DHT22;13748;52.240;6.002;2022-12-29T14:40:47;9.90;99.90
25951;DHT22;13748;52.240;6.002;2022-12-29T14:43:21;9.80;99.90
25951;DHT22;13748;52.240;6.002;2022-12-29T14:46:02;9.80;99.90
25951;DHT22;13748;52.240;6.002;2022-12-29T14:48:56;9.80;99.90
25951;DHT22;13748;52.240;6.002;2022-12-29T14:51:41;9.80;99.90
25951;DHT22;13748;52.240;6.002;2022-12-29T14:54:40;9.80;99.90
25951;DHT22;13748;52.240;6.002;2022-12-29T14:57:14;9.70;99.90
25951;DHT22;13748;52.240;6.002;2022-12-29T14:59:42;9.70;99.90
25951;DHT22;13748;52.240;6.002;2022-12-29T15:02:20;9.70;99.90
25951;DHT22;13748;52.240;6.002;2022-12-29T15:04:48;9.70;99.90
25951;DHT22;13748;52.240;6.002;2022-12-29T15:07:17;9.70;99.90
25951;DHT22;13748;52.240;6.002;2022-12-29T15:09:46;9.60;99.90
25951;DHT22;13748;52.240;6.002;2022-12-29T15:12:38;9.60;99.90
25951;DHT22;13748;52.240;6.002;2022-12-29T15:15:19;9.60;99.90
25951;DHT22;13748;52.240;6.002;2022-12-29T15:17:46;9.50;99.90
25951;DHT22;13748;52.240;6.002;2022-12-29T15:20:23;9.40;99.90
25951;DHT22;13748;52.240;6.002;2022-12-29T15:23:14;9.40;99.90
25951;DHT22;13748;52.240;6.002;2022-12-29T15:25:55;9.40;99.90
25951;DHT22;13748;52.240;6.002;2022-12-29T15:28:22;9.30;99.90
25951;DHT22;13748;52.240;6.002;2022-12-29T15:31:17;9.20;99.90
25951;DHT22;13748;52.240;6.002;2022-12-29T15:33:52;9.30;99.90
25951;DHT22;13748;52.240;6.002;2022-12-29T15:36:23;9.20;99.90
25951;DHT22;13748;52.240;6.002;2022-12-29T15:38:50;9.20;99.90
25951;DHT22;13748;52.240;6.002;2022-12-29T15:41:53;9.20;99.90
25951;DHT22;13748;52.240;6.002;2022-12-29T15:44:42;9.20;99.90
25951;DHT22;13748;52.240;6.002;2022-12-29T15:47:24;9.20;99.90
25951;DHT22;13748;52.240;6.002;2022-12-29T15:49:53;9.20;99.90
25951;DHT22;13748;52.240;6.002;2022-12-29T15:52:24;9.20;99.90
25951;DHT22;13748;52.240;6.002;2022-12-29T15:54:52;9.10;99.90
25951;DHT22;13748;52.240;6.002;2022-12-29T15:57:26;9.10;99.90
25951;DHT22;13748;52.240;6.002;2022-12-29T15:59:53;9.10;99.90
25951;DHT22;13748;52.240;6.002;2022-12-29T16:02:24;9.10;99.90
25951;DHT22;13748;52.240;6.002;2022-12-29T16:04:52;9.10;99.90
25951;DHT22;13748;52.240;6.002;2022-12-29T16:07:39;9.10;99.90
25951;DHT22;13748;52.240;6.002;2022-12-29T16:10:37;9.10;99.90
25951;DHT22;13748;52.240;6.002;2022-12-29T16:13:16;9.10;99.90
25951;DHT22;13748;52.240;6.002;2022-12-29T16:15:46;9.20;99.90
25951;DHT22;13748;52.240;6.002;2022-12-29T16:18:35;9.10;99.90
25951;DHT22;13748;52.240;6.002;2022-12-29T16:21:16;9.20;99.90
25951;DHT22;13748;52.240;6.002;2022-12-29T16:23:48;9.20;99.90
25951;DHT22;13748;52.240;6.002;2022-12-29T16:26:17;9.20;99.90
25951;DHT22;13748;52.240;6.002;2022-12-29T16:28:48;9.20;99.90
25951;DHT22;13748;52.240;6.002;2022-12-29T16:32:18;9.20;99.90
25951;DHT22;13748;52.240;6.002;2022-12-29T16:34:20;9.30;99.90
25951;DHT22;13748;52.240;6.002;2022-12-29T16:37:02;9.30;99.90
25951;DHT22;13748;52.240;6.002;2022-12-29T16:39:39;9.30;99.90
25951;DHT22;13748;52.240;6.002;2022-12-29T16:42:43;9.30;99.90
25951;DHT22;13748;52.240;6.002;2022-12-29T16:50:36;9.30;99.90
25951;DHT22;13748;52.240;6.002;2022-12-29T16:53:04;9.30;99.90
25951;DHT22;13748;52.240;6.002;2022-12-29T16:55:32;9.30;99.90
25951;DHT22;13748;52.240;6.002;2022-12-29T16:57:59;9.30;99.90
25951;DHT22;13748;52.240;6.002;2022-12-29T17:00:29;9.30;99.90
25951;DHT22;13748;52.240;6.002;2022-12-29T17:02:58;9.30;99.90
25951;DHT22;13748;52.240;6.002;2022-12-29T17:05:26;9.40;99.90
25951;DHT22;13748;52.240;6.002;2022-12-29T17:07:52;9.40;99.90
25951;DHT22;13748;52.240;6.002;2022-12-29T17:10:19;9.40;99.90
25951;DHT22;13748;52.240;6.002;2022-12-29T17:12:48;9.40;99.90
25951;DHT22;13748;52.240;6.002;2022-12-29T17:15:21;9.40;99.90
25951;DHT22;13748;52.240;6.002;2022-12-29T17:17:53;9.30;99.90
25951;DHT22;13748;52.240;6.002;2022-12-29T17:20:26;9.30;99.90
25951;DHT22;13748;52.240;6.002;2022-12-29T17:22:53;9.30;99.90
25951;DHT22;13748;52.240;6.002;2022-12-29T17:25:23;9.20;99.90
25951;DHT22;13748;52.240;6.002;2022-12-29T17:30:43;9.20;99.90
25951;DHT22;13748;52.240;6.002;2022-12-29T17:33:13;9.10;99.90
25951;DHT22;13748;52.240;6.002;2022-12-29T17:35:41;9.10;99.90
25951;DHT22;13748;52.240;6.002;2022-12-29T17:38:25;9.10;99.90
25951;DHT22;13748;52.240;6.002;2022-12-29T17:40:53;9.00;99.90
25951;DHT22;13748;52.240;6.002;2022-12-29T17:43:20;8.90;99.90
25951;DHT22;13748;52.240;6.002;2022-12-29T17:45:51;8.90;99.90
25951;DHT22;13748;52.240;6.002;2022-12-29T17:48:19;8.80;99.90
25951;DHT22;13748;52.240;6.002;2022-12-29T17:50:47;8.80;99.90
25951;DHT22;13748;52.240;6.002;2022-12-29T17:53:20;8.80;99.90
25951;DHT22;13748;52.240;6.002;2022-12-29T17:55:48;8.70;99.90
25951;DHT22;13748;52.240;6.002;2022-12-29T17:58:20;8.70;99.90
25951;DHT22;13748;52.240;6.002;2022-12-29T18:00:53;8.70;99.90
25951;DHT22;13748;52.240;6.002;2022-12-29T18:03:27;8.70;99.90
25951;DHT22;13748;52.240;6.002;2022-12-29T18:05:55;8.70;99.90
25951;DHT22;13748;52.240;6.002;2022-12-29T18:08:22;8.60;99.90
25951;DHT22;13748;52.240;6.002;2022-12-29T18:10:50;8.60;99.90